createdAt,value
2023-04-28T00:01:45.795Z,8.13
2023-04-28T00:04:13.057Z,8.50
2023-04-28T00:06:41.289Z,7.00
2023-04-28T00:09:11.327Z,6.97
2023-04-28T00:11:41.701Z,6.50
2023-04-28T00:14:08.558Z,7.40
2023-04-28T00:16:35.761Z,7.60
2023-04-28T00:19:02.728Z,6.87
2023-04-28T00:21:29.727Z,6.83
2023-04-28T00:23:56.604Z,6.20
2023-04-28T00:26:23.554Z,6.73
2023-04-28T00:28:50.929Z,6.30
2023-04-28T00:31:17.884Z,6.40
2023-04-28T00:33:44.875Z,5.60
2023-04-28T00:36:11.911Z,6.40
2023-04-28T00:38:38.869Z,6.23
2023-04-28T00:41:06.059Z,5.87
2023-04-28T00:43:32.945Z,6.20
2023-04-28T00:45:59.999Z,7.10
2023-04-28T00:48:27.916Z,6.40
2023-04-28T00:50:55.047Z,6.60
2023-04-28T00:53:22.113Z,6.00
2023-04-28T00:55:51.086Z,6.20
2023-04-28T00:58:18.033Z,5.57
2023-04-28T01:00:44.915Z,6.30
2023-04-28T01:03:12.375Z,5.83
2023-04-28T01:05:39.591Z,6.20
2023-04-28T01:08:06.602Z,6.90
2023-04-28T01:10:33.937Z,6.40
2023-04-28T01:13:07.962Z,6.90
2023-04-28T01:15:35.220Z,6.53
2023-04-28T01:18:02.226Z,7.20
2023-04-28T01:20:29.521Z,5.27
2023-04-28T01:22:56.374Z,5.67
2023-04-28T01:25:23.598Z,6.03
2023-04-28T01:27:50.597Z,6.70
2023-04-28T01:30:17.633Z,5.27
2023-04-28T01:32:44.562Z,5.17
2023-04-28T01:35:11.417Z,6.60
2023-04-28T01:37:38.384Z,5.80
2023-04-28T01:40:05.925Z,6.83
2023-04-28T01:42:32.876Z,5.60
2023-04-28T01:45:03.574Z,8.50
2023-04-28T01:47:30.710Z,7.13
2023-04-28T01:49:57.816Z,6.37
2023-04-28T01:52:24.754Z,7.63
2023-04-28T01:54:52.363Z,8.80
2023-04-28T01:57:20.584Z,8.47
2023-04-28T01:59:49.338Z,6.47
2023-04-28T02:02:16.549Z,7.47
2023-04-28T02:04:43.672Z,6.43
2023-04-28T02:07:10.739Z,6.50
2023-04-28T02:09:37.633Z,5.67
2023-04-28T02:12:04.816Z,5.57
2023-04-28T02:14:34.927Z,6.60
2023-04-28T02:17:03.545Z,5.83
2023-04-28T02:19:30.433Z,5.53
2023-04-28T02:21:57.310Z,6.20
2023-04-28T02:24:24.220Z,5.73
2023-04-28T02:26:51.098Z,6.23
2023-04-28T02:29:18.246Z,6.03
2023-04-28T02:31:45.129Z,5.90
2023-04-28T02:34:12.082Z,5.77
2023-04-28T02:36:39.632Z,7.00
2023-04-28T02:39:07.548Z,5.13
2023-04-28T02:41:34.930Z,6.33
2023-04-28T02:44:01.970Z,5.90
2023-04-28T02:46:29.191Z,5.73
2023-04-28T02:48:57.434Z,6.07
2023-04-28T02:51:24.290Z,5.00
2023-04-28T02:53:51.321Z,5.53
2023-04-28T02:56:18.296Z,6.50
2023-04-28T02:58:45.271Z,4.97
2023-04-28T03:01:12.312Z,5.00
2023-04-28T03:03:39.396Z,6.40
2023-04-28T03:06:06.640Z,6.10
2023-04-28T03:08:33.525Z,4.50
2023-04-28T03:11:00.881Z,6.47
2023-04-28T03:13:30.243Z,5.63
2023-04-28T03:15:57.632Z,6.00
2023-04-28T03:18:24.755Z,6.07
2023-04-28T03:20:51.824Z,5.93
2023-04-28T03:23:19.928Z,5.70
2023-04-28T03:25:46.802Z,6.10
2023-04-28T03:28:13.742Z,5.90
2023-04-28T03:30:40.790Z,4.83
2023-04-28T03:33:07.871Z,5.43
2023-04-28T03:35:34.957Z,5.47
2023-04-28T03:38:01.848Z,4.87
2023-04-28T03:40:28.698Z,5.17
2023-04-28T03:43:15.830Z,5.00
2023-04-28T03:46:04.440Z,5.50
2023-04-28T03:48:31.361Z,5.80
2023-04-28T03:50:58.275Z,5.90
2023-04-28T03:53:25.913Z,6.43
2023-04-28T03:55:53.451Z,5.83
2023-04-28T03:58:20.584Z,5.60
2023-04-28T04:00:47.531Z,5.73
2023-04-28T04:03:14.567Z,5.10
2023-04-28T04:05:43.911Z,4.53
2023-04-28T04:08:11.312Z,6.60
2023-04-28T04:10:38.337Z,5.53
2023-04-28T04:13:05.726Z,4.80
2023-04-28T04:15:32.781Z,5.40
2023-04-28T04:17:59.822Z,5.07
2023-04-28T04:20:31.900Z,4.93
2023-04-28T04:22:58.784Z,5.13
2023-04-28T04:25:25.782Z,4.80
2023-04-28T04:27:53.368Z,6.13
2023-04-28T04:30:20.852Z,4.80
2023-04-28T04:32:47.824Z,5.07
2023-04-28T04:35:14.853Z,5.20
2023-04-28T04:37:41.819Z,4.47
2023-04-28T04:40:09.382Z,4.40
2023-04-28T04:42:43.275Z,5.67
2023-04-28T04:45:17.949Z,4.97
2023-04-28T04:47:45.071Z,4.30
2023-04-28T04:50:12.518Z,5.23
2023-04-28T04:52:39.694Z,4.80
2023-04-28T04:55:07.628Z,4.33
2023-04-28T04:57:34.533Z,4.27
2023-04-28T05:00:18.413Z,4.60
2023-04-28T05:02:46.111Z,5.03
2023-04-28T05:05:21.240Z,4.47
2023-04-28T05:08:04.021Z,4.87
2023-04-28T05:10:31.053Z,4.37
2023-04-28T05:12:58.993Z,4.73
2023-04-28T05:15:26.207Z,4.83
2023-04-28T05:18:13.925Z,4.43
2023-04-28T05:20:40.908Z,5.10
2023-04-28T05:23:08.433Z,5.67
2023-04-28T05:25:35.404Z,5.40
2023-04-28T05:28:07.834Z,5.37
2023-04-28T05:30:34.923Z,4.67
2023-04-28T05:33:02.213Z,4.80
2023-04-28T05:35:29.443Z,4.77
2023-04-28T05:37:56.578Z,4.60
2023-04-28T05:40:23.432Z,4.93
2023-04-28T05:42:50.278Z,4.93
2023-04-28T05:45:17.234Z,4.00
2023-04-28T05:47:44.301Z,5.10
2023-04-28T05:50:11.409Z,5.67
2023-04-28T05:52:38.545Z,5.10
2023-04-28T05:55:05.781Z,4.20
2023-04-28T05:57:38.944Z,4.27
2023-04-28T06:00:17.528Z,4.30
2023-04-28T06:02:44.525Z,4.40
2023-04-28T06:05:11.964Z,5.83
2023-04-28T06:07:39.147Z,5.40
2023-04-28T06:10:06.725Z,5.03
2023-04-28T06:12:33.659Z,5.20
2023-04-28T06:15:01.300Z,6.93
2023-04-28T06:17:28.362Z,4.50
2023-04-28T06:19:55.991Z,4.53
2023-04-28T06:22:22.820Z,6.00
2023-04-28T06:24:49.792Z,4.30
2023-04-28T06:27:20.005Z,4.97
2023-04-28T06:29:46.913Z,5.30
2023-04-28T06:32:13.782Z,4.53
2023-04-28T06:34:42.113Z,4.70
2023-04-28T06:37:08.950Z,4.27
2023-04-28T06:39:36.058Z,5.10
2023-04-28T06:42:03.511Z,4.97
2023-04-28T06:44:34.818Z,5.40
2023-04-28T06:47:03.626Z,5.40
2023-04-28T06:49:30.518Z,4.30
2023-04-28T06:52:00.186Z,4.80
2023-04-28T06:54:30.213Z,8.53
2023-04-28T06:56:57.111Z,7.73
2023-04-28T06:59:24.676Z,15.60
2023-04-28T07:01:51.551Z,9.20
2023-04-28T07:04:18.642Z,6.00
2023-04-28T07:06:46.031Z,4.50
2023-04-28T07:09:13.138Z,4.70
2023-04-28T07:11:39.992Z,5.30
2023-04-28T07:14:08.440Z,5.83
2023-04-28T07:16:36.292Z,5.67
2023-04-28T07:19:03.230Z,5.67
2023-04-28T07:21:30.177Z,4.77
2023-04-28T07:23:57.303Z,4.30
2023-04-28T07:26:24.390Z,4.73
2023-04-28T07:28:51.873Z,4.40
2023-04-28T07:31:18.835Z,4.00
2023-04-28T07:33:45.770Z,4.90
2023-04-28T07:36:12.602Z,4.90
2023-04-28T07:38:39.546Z,4.37
2023-04-28T07:41:07.712Z,5.10
2023-04-28T07:43:37.056Z,4.50
2023-04-28T07:46:04.117Z,3.90
2023-04-28T07:48:32.622Z,4.10
2023-04-28T07:50:59.494Z,5.23
2023-04-28T07:53:26.666Z,4.17
2023-04-28T07:55:53.586Z,4.93
2023-04-28T07:58:20.547Z,5.00
2023-04-28T08:00:47.456Z,4.73
2023-04-28T08:03:14.526Z,4.50
2023-04-28T08:05:41.708Z,5.70
2023-04-28T08:08:08.591Z,6.00
2023-04-28T08:10:35.450Z,4.97
2023-04-28T08:13:03.014Z,4.93
2023-04-28T08:15:30.005Z,5.10
2023-04-28T08:17:57.041Z,5.33
2023-04-28T08:20:24.773Z,6.37
2023-04-28T08:22:52.031Z,5.43
2023-04-28T08:25:18.841Z,5.13
2023-04-28T08:27:45.776Z,6.57
2023-04-28T08:30:12.828Z,6.30
2023-04-28T08:32:39.702Z,5.97
2023-04-28T08:35:07.363Z,6.00
2023-04-28T08:37:37.044Z,6.00
2023-04-28T08:40:10.093Z,5.87
2023-04-28T08:42:37.810Z,5.60
2023-04-28T08:45:05.784Z,5.60
2023-04-28T08:47:36.733Z,6.27
2023-04-28T08:50:08.693Z,5.80
2023-04-28T08:52:36.875Z,5.50
2023-04-28T08:55:10.062Z,6.17
2023-04-28T08:57:44.492Z,6.17
2023-04-28T09:00:12.278Z,6.47
2023-04-28T09:02:42.515Z,7.43
2023-04-28T09:05:11.840Z,7.10
2023-04-28T09:07:39.103Z,8.10
2023-04-28T09:10:23.766Z,8.00
2023-04-28T09:12:56.177Z,5.90
2023-04-28T09:15:32.660Z,7.27
2023-04-28T09:18:02.421Z,7.57
2023-04-28T09:20:31.640Z,7.33
2023-04-28T09:23:31.012Z,6.70
2023-04-28T09:26:06.655Z,9.50
2023-04-28T09:28:35.371Z,7.23
2023-04-28T09:31:02.803Z,7.70
2023-04-28T09:33:30.067Z,7.53
2023-04-28T09:35:57.014Z,7.17
2023-04-28T09:38:23.979Z,8.00
2023-04-28T09:41:02.079Z,6.67
2023-04-28T09:43:34.579Z,7.90
2023-04-28T09:46:03.809Z,6.80
2023-04-28T09:48:33.843Z,6.97
2023-04-28T09:51:03.518Z,7.70
2023-04-28T09:53:31.192Z,7.33
2023-04-28T09:56:00.174Z,7.20
2023-04-28T09:58:28.228Z,7.10
2023-04-28T10:01:00.394Z,8.37
2023-04-28T10:03:30.154Z,7.40
2023-04-28T10:05:59.224Z,8.67
2023-04-28T10:08:27.650Z,8.73
2023-04-28T10:10:55.807Z,7.93
2023-04-28T10:13:23.493Z,9.87
2023-04-28T10:15:51.522Z,9.00
2023-04-28T10:18:18.954Z,9.10
2023-04-28T10:20:49.025Z,9.20
2023-04-28T10:23:47.213Z,9.17
2023-04-28T10:26:15.792Z,9.40
2023-04-28T10:28:50.943Z,9.83
2023-04-28T10:31:23.579Z,9.50
2023-04-28T10:33:50.793Z,9.60
2023-04-28T10:36:55.186Z,10.67
2023-04-28T10:39:22.132Z,11.57
2023-04-28T10:41:49.456Z,10.17
2023-04-28T10:44:28.551Z,10.00
2023-04-28T10:47:09.927Z,10.23
2023-04-28T10:49:55.705Z,10.50
2023-04-28T10:52:40.982Z,10.57
2023-04-28T10:55:28.937Z,9.10
2023-04-28T10:58:18.382Z,9.03
2023-04-28T11:00:46.002Z,8.97
2023-04-28T11:03:52.504Z,9.43
2023-04-28T11:06:41.834Z,10.50
2023-04-28T11:09:17.796Z,9.63
2023-04-28T11:12:00.008Z,10.43
2023-04-28T11:14:32.934Z,10.03
2023-04-28T11:17:01.924Z,9.30
2023-04-28T11:19:33.322Z,10.47
2023-04-28T11:22:03.029Z,11.60
2023-04-28T11:24:31.225Z,10.60
2023-04-28T11:27:01.345Z,9.63
2023-04-28T11:29:36.112Z,11.00
2023-04-28T11:32:04.515Z,10.67
2023-04-28T11:34:32.133Z,9.37
2023-04-28T11:36:59.168Z,10.03
2023-04-28T11:39:31.244Z,9.60
2023-04-28T11:42:10.993Z,10.77
2023-04-28T11:44:38.301Z,17.50
2023-04-28T11:47:06.570Z,14.80
2023-04-28T11:49:43.781Z,11.70
2023-04-28T11:52:11.989Z,10.43
2023-04-28T11:54:39.380Z,10.13
2023-04-28T11:57:06.819Z,9.80
2023-04-28T11:59:35.689Z,9.10
2023-04-28T12:02:05.227Z,8.63
2023-04-28T12:04:35.892Z,7.80
2023-04-28T12:07:15.411Z,9.13
2023-04-28T12:09:44.588Z,9.30
2023-04-28T12:12:18.354Z,8.63
2023-04-28T12:15:05.511Z,8.67
2023-04-28T12:17:41.758Z,8.87
2023-04-28T12:20:11.999Z,8.67
2023-04-28T12:22:46.999Z,7.30
2023-04-28T12:25:16.808Z,7.73
2023-04-28T12:28:05.840Z,7.53
2023-04-28T12:30:44.297Z,8.07
2023-04-28T12:33:25.336Z,7.70
2023-04-28T12:35:55.359Z,7.97
2023-04-28T12:38:23.416Z,8.20
2023-04-28T12:40:50.323Z,9.83
2023-04-28T12:43:17.212Z,7.83
2023-04-28T12:45:44.100Z,7.37
2023-04-28T12:48:11.234Z,7.00
2023-04-28T12:50:38.088Z,8.10
2023-04-28T12:53:05.347Z,8.27
2023-04-28T12:55:32.450Z,7.73
2023-04-28T12:57:59.666Z,8.40
2023-04-28T13:00:26.672Z,8.93
2023-04-28T13:02:53.762Z,8.90
2023-04-28T13:05:20.986Z,14.03
2023-04-28T13:07:49.591Z,12.47
2023-04-28T13:10:16.995Z,9.60
2023-04-28T13:12:44.094Z,8.93
2023-04-28T13:15:11.733Z,10.10
2023-04-28T13:17:38.736Z,9.50
2023-04-28T13:20:06.943Z,9.67
2023-04-28T13:22:33.786Z,10.50
2023-04-28T13:25:00.654Z,9.80
2023-04-28T13:27:30.524Z,11.50
2023-04-28T13:29:59.420Z,10.60
2023-04-28T13:32:26.436Z,11.13
2023-04-28T13:34:53.340Z,9.63
2023-04-28T13:37:20.256Z,9.73
2023-04-28T13:39:47.191Z,11.20
2023-04-28T13:42:14.302Z,11.40
2023-04-28T13:44:41.438Z,10.60
2023-04-28T13:47:10.028Z,11.37
2023-04-28T13:49:37.879Z,12.13
2023-04-28T13:52:04.916Z,10.80
2023-04-28T13:54:31.853Z,11.60
2023-04-28T13:56:58.768Z,12.23
2023-04-28T13:59:25.709Z,12.30
2023-04-28T14:01:52.577Z,10.50
2023-04-28T14:04:19.906Z,12.50
2023-04-28T14:06:46.933Z,12.07
2023-04-28T14:09:13.825Z,13.00
2023-04-28T14:11:40.660Z,13.10
2023-04-28T14:14:07.565Z,11.80
2023-04-28T14:16:34.459Z,12.70
2023-04-28T14:19:01.952Z,14.40
2023-04-28T14:21:29.006Z,14.57
2023-04-28T14:23:55.851Z,12.47
2023-04-28T14:26:24.040Z,13.20
2023-04-28T14:28:51.070Z,15.00
2023-04-28T14:31:18.374Z,13.67
2023-04-28T14:33:45.238Z,13.97
2023-04-28T14:36:12.116Z,13.47
2023-04-28T14:38:40.270Z,13.37
2023-04-28T14:41:07.274Z,12.77
2023-04-28T14:43:34.261Z,14.27
2023-04-28T14:46:01.344Z,13.07
2023-04-28T14:48:28.350Z,14.50
2023-04-28T14:50:55.272Z,14.87
2023-04-28T14:53:22.144Z,14.57
2023-04-28T14:55:49.115Z,15.43
2023-04-28T14:58:16.310Z,17.70
2023-04-28T15:00:43.889Z,14.40
2023-04-28T15:03:10.888Z,13.50
2023-04-28T15:05:37.817Z,13.90
2023-04-28T15:08:04.937Z,16.17
2023-04-28T15:10:38.815Z,15.03
2023-04-28T15:13:07.579Z,14.70
2023-04-28T15:15:35.122Z,14.97
2023-04-28T15:18:02.283Z,16.67
2023-04-28T15:20:37.344Z,14.90
2023-04-28T15:23:04.296Z,15.97
2023-04-28T15:25:31.255Z,15.20
2023-04-28T15:27:58.511Z,17.00
2023-04-28T15:30:25.394Z,16.07
2023-04-28T15:32:52.317Z,15.77
2023-04-28T15:35:19.411Z,18.17
2023-04-28T15:37:52.245Z,16.33
2023-04-28T15:40:20.021Z,17.20
2023-04-28T15:42:52.392Z,15.37
2023-04-28T15:45:22.798Z,15.73
2023-04-28T15:47:51.036Z,16.50
2023-04-28T15:50:19.805Z,16.10
2023-04-28T15:52:48.076Z,18.33
2023-04-28T15:55:16.835Z,17.50
2023-04-28T15:57:44.524Z,16.30
2023-04-28T16:00:11.942Z,16.20
2023-04-28T16:02:39.513Z,16.70
2023-04-28T16:05:07.448Z,17.60
2023-04-28T16:07:44.701Z,15.40
2023-04-28T16:10:14.014Z,15.63
2023-04-28T16:12:42.119Z,15.57
2023-04-28T16:15:11.150Z,16.20
2023-04-28T16:17:38.817Z,17.70
2023-04-28T16:20:07.663Z,14.37
2023-04-28T16:22:35.974Z,14.73
2023-04-28T16:25:05.924Z,15.80
2023-04-28T16:27:33.746Z,14.10
2023-04-28T16:30:00.842Z,16.17
2023-04-28T16:32:27.748Z,15.10
2023-04-28T16:34:58.672Z,17.00
2023-04-28T16:37:26.127Z,15.20
2023-04-28T16:39:53.091Z,14.80
2023-04-28T16:42:23.009Z,15.87
2023-04-28T16:44:52.645Z,16.67
2023-04-28T16:47:20.198Z,16.33
2023-04-28T16:49:47.337Z,17.63
2023-04-28T16:52:14.588Z,16.43
2023-04-28T16:54:41.905Z,16.63
2023-04-28T16:57:15.241Z,15.27
2023-04-28T16:59:42.176Z,15.67
2023-04-28T17:02:09.068Z,16.67
2023-04-28T17:04:36.909Z,17.27
2023-04-28T17:07:05.552Z,16.40
2023-04-28T17:09:33.556Z,16.80
2023-04-28T17:12:01.082Z,16.70
2023-04-28T17:14:28.117Z,16.83
2023-04-28T17:16:55.137Z,17.50
2023-04-28T17:19:22.619Z,17.33
2023-04-28T17:21:52.638Z,18.20
2023-04-28T17:24:19.638Z,18.07
2023-04-28T17:26:46.571Z,17.07
2023-04-28T17:29:13.489Z,16.63
2023-04-28T17:31:40.516Z,17.87
2023-04-28T17:34:07.605Z,18.17
2023-04-28T17:36:34.975Z,16.90
2023-04-28T17:39:03.835Z,18.07
2023-04-28T17:41:32.166Z,15.57
2023-04-28T17:43:59.325Z,16.90
2023-04-28T17:46:26.570Z,17.30
2023-04-28T17:48:53.634Z,17.03
2023-04-28T17:51:21.281Z,18.13
2023-04-28T17:53:49.004Z,17.87
2023-04-28T17:56:16.528Z,16.87
2023-04-28T17:58:43.654Z,18.40
2023-04-28T18:01:10.607Z,20.50
2023-04-28T18:03:38.972Z,21.73
2023-04-28T18:06:08.133Z,20.10
2023-04-28T18:08:37.053Z,18.30
2023-04-28T18:11:05.192Z,18.10
2023-04-28T18:13:33.380Z,17.20
2023-04-28T18:16:01.345Z,19.90
2023-04-28T18:18:30.553Z,18.90
2023-04-28T18:20:59.357Z,20.77
2023-04-28T18:23:27.294Z,21.00
2023-04-28T18:25:54.346Z,21.30
2023-04-28T18:28:21.405Z,21.67
2023-04-28T18:30:48.543Z,19.07
2023-04-28T18:33:15.969Z,20.13
2023-04-28T18:35:42.929Z,18.70
2023-04-28T18:38:10.159Z,20.47
2023-04-28T18:40:38.917Z,20.07
2023-04-28T18:43:07.217Z,18.60
2023-04-28T18:45:36.507Z,18.10
2023-04-28T18:48:04.487Z,20.67
2023-04-28T18:50:32.673Z,20.13
2023-04-28T18:53:04.564Z,21.17
2023-04-28T18:55:34.634Z,23.03
2023-04-28T18:58:04.411Z,22.80
2023-04-28T19:00:32.882Z,20.30
2023-04-28T19:03:00.705Z,21.90
2023-04-28T19:05:27.925Z,20.90
2023-04-28T19:07:54.788Z,22.17
2023-04-28T19:10:24.670Z,21.93
2023-04-28T19:12:51.731Z,19.83
2023-04-28T19:15:19.066Z,20.67
2023-04-28T19:17:45.966Z,19.00
2023-04-28T19:20:13.754Z,20.90
2023-04-28T19:22:44.505Z,21.87
2023-04-28T19:25:11.890Z,20.93
2023-04-28T19:27:41.094Z,21.27
2023-04-28T19:30:10.570Z,23.23
2023-04-28T19:32:37.861Z,20.43
2023-04-28T19:35:05.268Z,22.83
2023-04-28T19:37:35.934Z,21.20
2023-04-28T19:40:07.539Z,24.40
2023-04-28T19:42:38.960Z,23.43
2023-04-28T19:45:06.671Z,26.60
2023-04-28T19:47:37.982Z,21.33
2023-04-28T19:50:05.579Z,21.90
2023-04-28T19:52:33.917Z,21.13
2023-04-28T19:55:01.161Z,20.73
2023-04-28T19:57:31.250Z,24.10
2023-04-28T19:59:58.635Z,23.90
2023-04-28T20:02:25.813Z,24.70
2023-04-28T20:04:52.964Z,25.20
2023-04-28T20:07:20.066Z,24.30
2023-04-28T20:09:47.343Z,23.53
2023-04-28T20:12:15.462Z,21.53
2023-04-28T20:14:44.584Z,22.70
2023-04-28T20:17:11.639Z,21.50
2023-04-28T20:19:38.971Z,20.40
2023-04-28T20:22:08.396Z,20.80
2023-04-28T20:24:36.469Z,20.57
2023-04-28T20:27:04.450Z,21.83
2023-04-28T20:29:34.813Z,23.70
2023-04-28T20:32:02.740Z,22.97
2023-04-28T20:34:29.726Z,25.87
2023-04-28T20:36:58.308Z,26.17
2023-04-28T20:39:25.919Z,28.47
2023-04-28T20:41:52.808Z,26.20
2023-04-28T20:44:19.701Z,27.30
2023-04-28T20:46:46.709Z,25.13
2023-04-28T20:49:13.821Z,24.23
2023-04-28T20:51:48.090Z,22.40
2023-04-28T20:54:15.397Z,21.47
2023-04-28T20:56:43.174Z,21.60
2023-04-28T20:59:10.074Z,21.97
2023-04-28T21:01:37.412Z,20.03
2023-04-28T21:04:04.534Z,22.53
2023-04-28T21:06:31.583Z,22.30
2023-04-28T21:08:58.557Z,21.23
2023-04-28T21:11:25.568Z,22.40
2023-04-28T21:13:52.664Z,21.57
2023-04-28T21:16:21.721Z,21.80
2023-04-28T21:18:49.781Z,23.37
2023-04-28T21:21:17.209Z,22.90
2023-04-28T21:23:44.509Z,22.07
2023-04-28T21:26:11.609Z,23.50
2023-04-28T21:28:40.082Z,25.33
2023-04-28T21:31:07.422Z,22.73
2023-04-28T21:33:34.605Z,24.20
2023-04-28T21:36:08.832Z,24.77
2023-04-28T21:38:39.707Z,24.27
2023-04-28T21:41:07.891Z,25.43
2023-04-28T21:43:35.467Z,24.77
2023-04-28T21:46:02.457Z,25.43
2023-04-28T21:48:29.572Z,26.50
2023-04-28T21:50:57.211Z,24.30
2023-04-28T21:53:24.156Z,28.00
2023-04-28T21:55:51.132Z,27.23
2023-04-28T21:58:18.064Z,27.97
2023-04-28T22:00:47.335Z,25.43
2023-04-28T22:03:15.704Z,24.40
2023-04-28T22:05:44.480Z,24.80
2023-04-28T22:08:12.137Z,26.67
2023-04-28T22:10:39.382Z,24.83
2023-04-28T22:13:06.850Z,26.13
2023-04-28T22:15:34.170Z,25.27
2023-04-28T22:18:01.341Z,25.93
2023-04-28T22:20:28.478Z,26.97
2023-04-28T22:22:57.920Z,28.50
2023-04-28T22:25:25.536Z,27.23
2023-04-28T22:27:52.585Z,29.40
2023-04-28T22:30:19.802Z,27.00
2023-04-28T22:32:47.710Z,28.00
2023-04-28T22:35:16.917Z,26.80
2023-04-28T22:37:44.413Z,28.30
2023-04-28T22:40:11.600Z,26.70
2023-04-28T22:42:40.425Z,27.60
2023-04-28T22:45:08.084Z,26.43
2023-04-28T22:47:35.377Z,25.23
2023-04-28T22:50:06.640Z,27.00
2023-04-28T22:52:34.528Z,26.47
2023-04-28T22:55:01.631Z,22.47
2023-04-28T22:57:29.031Z,24.83
2023-04-28T22:59:56.304Z,25.27
2023-04-28T23:02:23.701Z,26.20
2023-04-28T23:04:51.279Z,25.20
2023-04-28T23:07:18.381Z,24.40
2023-04-28T23:09:45.445Z,21.30
2023-04-28T23:12:12.735Z,24.40
2023-04-28T23:14:39.864Z,23.83
2023-04-28T23:17:06.884Z,24.33
2023-04-28T23:19:35.863Z,24.20
2023-04-28T23:22:02.948Z,24.60
2023-04-28T23:24:29.906Z,22.10
2023-04-28T23:26:56.952Z,22.20
2023-04-28T23:29:24.155Z,21.00
2023-04-28T23:31:55.017Z,21.57
2023-04-28T23:34:23.217Z,23.93
2023-04-28T23:36:51.259Z,23.00
2023-04-28T23:39:18.265Z,24.87
2023-04-28T23:41:45.311Z,25.07
2023-04-28T23:44:12.389Z,24.60
2023-04-28T23:46:39.375Z,24.80
2023-04-28T23:49:06.345Z,25.47
2023-04-28T23:51:33.425Z,24.97
2023-04-28T23:54:00.454Z,20.70
2023-04-28T23:56:27.602Z,21.83
2023-04-28T23:58:54.723Z,19.00
